Time;durP1;ratioP1;P1;durP2;ratioP2;P2;SDS_P1;SDS_P2;PMS_P1;PMS_P2;Temp;Humidity;BMP_temperature;BMP_pressure;BME280_temperature;BME280_humidity;BME280_pressure;Samples;Min_cycle;Max_cycle;Signal;HPM_P1;HPM_P2
2023/08/26 00:00:56;;;;;;;;;;;21.60;99.90;;;;;;5054019;28;20014;-78
2023/08/26 00:03:24;;;;;;;;;;;21.80;99.90;;;;;;5055360;28;19967;-80
2023/08/26 00:05:53;;;;;;;;;;;22.10;99.90;;;;;;5049255;28;19925;-80
2023/08/26 00:08:21;;;;;;;;;;;22.10;99.90;;;;;;5054428;28;19928;-79
2023/08/26 00:10:48;;;;;;;;;;;22.10;99.90;;;;;;5054382;28;19928;-80
2023/08/26 00:13:16;;;;;;;;;;;22.00;99.90;;;;;;5054864;28;19925;-80
2023/08/26 00:15:44;;;;;;;;;;;22.00;99.90;;;;;;5055676;28;20357;-81
2023/08/26 00:18:12;;;;;;;;;;;22.00;99.90;;;;;;5055393;28;19951;-80
2023/08/26 00:20:40;;;;;;;;;;;21.90;99.90;;;;;;5051623;28;19924;-80
2023/08/26 00:23:09;;;;;;;;;;;21.90;99.90;;;;;;5052469;28;20003;-78
2023/08/26 00:25:37;;;;;;;;;;;21.90;99.90;;;;;;5045232;28;19931;-79
2023/08/26 00:28:05;;;;;;;;;;;21.90;99.90;;;;;;5053548;28;19928;-78
2023/08/26 00:30:33;;;;;;;;;;;21.90;99.90;;;;;;5052998;28;19936;-78
2023/08/26 00:33:01;;;;;;;;;;;22.00;99.90;;;;;;5053409;28;19978;-78
2023/08/26 00:35:29;;;;;;;;;;;22.10;99.90;;;;;;5052675;28;19936;-78
2023/08/26 00:37:57;;;;;;;;;;;22.20;99.90;;;;;;5053292;28;19986;-78
2023/08/26 00:40:27;;;;;;;;;;;22.20;99.90;;;;;;5052922;28;20429;-77
2023/08/26 00:42:55;;;;;;;;;;;22.10;99.90;;;;;;5053215;28;19932;-78
2023/08/26 00:45:23;;;;;;;;;;;22.00;99.90;;;;;;5052732;28;19925;-77
2023/08/26 00:47:51;;;;;;;;;;;21.90;99.90;;;;;;5053078;28;19925;-78
2023/08/26 00:50:19;;;;;;;;;;;22.00;99.90;;;;;;5052707;28;20011;-78
2023/08/26 00:52:47;;;;;;;;;;;21.90;99.90;;;;;;5052813;28;20322;-77
2023/08/26 00:55:15;;;;;;;;;;;21.90;99.90;;;;;;5051910;28;20342;-77
2023/08/26 00:57:44;;;;;;;;;;;21.90;99.90;;;;;;5053033;28;19929;-77
2023/08/26 01:00:12;;;;;;;;;;;22.00;99.90;;;;;;5052621;28;19925;-76
2023/08/26 01:02:40;;;;;;;;;;;22.00;99.90;;;;;;5044793;28;19929;-77
2023/08/26 01:05:08;;;;;;;;;;;22.10;99.90;;;;;;5052461;28;19924;-76
2023/08/26 01:07:36;;;;;;;;;;;22.20;99.90;;;;;;5052502;28;19931;-76
2023/08/26 01:10:04;;;;;;;;;;;22.30;99.90;;;;;;5052305;28;20399;-76
2023/08/26 01:12:36;;;;;;;;;;;22.30;99.90;;;;;;5052506;28;19931;-78
2023/08/26 01:15:08;;;;;;;;;;;22.40;99.90;;;;;;5052424;28;20338;-78
2023/08/26 01:17:36;;;;;;;;;;;22.30;99.90;;;;;;5052532;28;19939;-76
2023/08/26 01:20:05;;;;;;;;;;;22.40;99.90;;;;;;5052366;28;19929;-76
2023/08/26 01:22:34;;;;;;;;;;;22.30;99.90;;;;;;5053386;28;19925;-80
2023/08/26 01:25:04;;;;;;;;;;;22.10;99.90;;;;;;5050744;28;19925;-77
2023/08/26 01:27:32;;;;;;;;;;;21.90;99.90;;;;;;5052109;28;19931;-79
2023/08/26 01:30:00;;;;;;;;;;;21.90;99.90;;;;;;5051729;28;19925;-78
2023/08/26 01:32:33;;;;;;;;;;;22.00;99.90;;;;;;5051798;28;19947;-77
2023/08/26 01:35:04;;;;;;;;;;;22.00;99.90;;;;;;5052325;28;20027;-77
2023/08/26 01:37:32;;;;;;;;;;;22.00;99.90;;;;;;5052084;28;20322;-77
2023/08/26 01:40:01;;;;;;;;;;;21.90;99.90;;;;;;5051937;28;19929;-75
2023/08/26 01:42:31;;;;;;;;;;;21.90;99.90;;;;;;5051679;28;19925;-76
2023/08/26 01:44:59;;;;;;;;;;;22.00;99.90;;;;;;5051869;28;19929;-76
2023/08/26 01:47:27;;;;;;;;;;;22.20;99.90;;;;;;5051757;28;19975;-78
2023/08/26 01:49:55;;;;;;;;;;;22.10;99.90;;;;;;5052151;28;19932;-78
2023/08/26 01:52:22;;;;;;;;;;;22.10;99.90;;;;;;5051496;28;20406;-78
2023/08/26 01:54:50;;;;;;;;;;;22.10;99.90;;;;;;5051498;28;19983;-78
2023/08/26 01:57:18;;;;;;;;;;;22.00;99.90;;;;;;5052048;28;19994;-79
2023/08/26 01:59:47;;;;;;;;;;;22.00;99.90;;;;;;5044213;28;20395;-79
2023/08/26 02:02:15;;;;;;;;;;;22.10;99.90;;;;;;5051658;28;20311;-79
2023/08/26 02:04:43;;;;;;;;;;;22.10;99.90;;;;;;5051083;28;19974;-79
2023/08/26 02:07:11;;;;;;;;;;;22.30;99.90;;;;;;5051644;28;19983;-79
2023/08/26 02:09:38;;;;;;;;;;;22.20;99.90;;;;;;5051608;28;19948;-79
2023/08/26 02:12:07;;;;;;;;;;;22.10;99.90;;;;;;5051613;28;19936;-80
2023/08/26 02:14:34;;;;;;;;;;;22.00;99.90;;;;;;5051412;28;20004;-79
2023/08/26 02:17:04;;;;;;;;;;;22.00;99.90;;;;;;5050820;28;19925;-78
2023/08/26 02:19:31;;;;;;;;;;;22.10;99.90;;;;;;5051023;28;20054;-78
2023/08/26 02:22:00;;;;;;;;;;;22.10;99.90;;;;;;5051349;28;19925;-78
2023/08/26 02:24:29;;;;;;;;;;;22.10;99.90;;;;;;5051226;28;19925;-78
2023/08/26 02:26:56;;;;;;;;;;;22.10;99.90;;;;;;5051120;28;19930;-77
2023/08/26 02:29:24;;;;;;;;;;;22.10;99.90;;;;;;5050963;28;19929;-77
2023/08/26 02:31:52;;;;;;;;;;;22.00;99.90;;;;;;5051010;28;19929;-78
2023/08/26 02:34:21;;;;;;;;;;;22.00;99.90;;;;;;5050732;28;19975;-77
2023/08/26 02:36:49;;;;;;;;;;;21.90;99.90;;;;;;5047289;28;19986;-77
2023/08/26 02:39:17;;;;;;;;;;;21.90;99.90;;;;;;5050420;28;19929;-78
2023/08/26 02:41:44;;;;;;;;;;;21.90;99.90;;;;;;5048376;28;20361;-79
2023/08/26 02:44:12;;;;;;;;;;;21.80;99.90;;;;;;5050025;28;19932;-77
2023/08/26 02:46:40;;;;;;;;;;;21.70;99.90;;;;;;5048810;28;19928;-78
2023/08/26 02:49:08;;;;;;;;;;;21.60;99.90;;;;;;5043197;28;19947;-77
2023/08/26 02:51:41;;;;;;;;;;;21.50;99.90;;;;;;5047525;28;20388;-78
2023/08/26 02:54:08;;;;;;;;;;;21.40;99.90;;;;;;5050168;28;19931;-78
2023/08/26 02:56:36;;;;;;;;;;;21.30;99.90;;;;;;5046891;28;19932;-78
2023/08/26 02:59:04;;;;;;;;;;;21.30;99.90;;;;;;5043560;28;19929;-78
2023/08/26 03:01:32;;;;;;;;;;;21.30;99.90;;;;;;5046062;28;20394;-78
2023/08/26 03:03:59;;;;;;;;;;;21.30;99.90;;;;;;5042108;28;20023;-78
2023/08/26 03:06:28;;;;;;;;;;;21.10;99.90;;;;;;5047053;28;20403;-78
2023/08/26 03:08:57;;;;;;;;;;;21.00;99.90;;;;;;5049309;28;19933;-77
2023/08/26 03:11:25;;;;;;;;;;;20.90;99.90;;;;;;5048367;28;19929;-77
2023/08/26 03:13:53;;;;;;;;;;;20.70;99.90;;;;;;5049709;28;19935;-77
2023/08/26 03:16:20;;;;;;;;;;;20.70;99.90;;;;;;5050083;28;20369;-78
2023/08/26 03:18:48;;;;;;;;;;;20.70;99.90;;;;;;5050899;28;19925;-78
2023/08/26 03:21:16;;;;;;;;;;;20.60;99.90;;;;;;5049310;28;19925;-76
2023/08/26 03:23:44;;;;;;;;;;;20.60;99.90;;;;;;5049168;28;19925;-77
2023/08/26 03:26:13;;;;;;;;;;;20.60;99.90;;;;;;5048525;28;19950;-77
2023/08/26 03:28:41;;;;;;;;;;;20.50;99.90;;;;;;5047124;28;19928;-76
2023/08/26 03:31:08;;;;;;;;;;;20.50;99.90;;;;;;5046237;28;20402;-76
2023/08/26 03:33:36;;;;;;;;;;;20.60;99.90;;;;;;5048148;28;19962;-78
2023/08/26 03:36:04;;;;;;;;;;;20.50;99.90;;;;;;5049521;28;19925;-78
2023/08/26 03:38:33;;;;;;;;;;;20.50;99.90;;;;;;5049602;28;19932;-77
2023/08/26 03:41:02;;;;;;;;;;;20.60;99.90;;;;;;5047736;28;19928;-76
2023/08/26 03:43:31;;;;;;;;;;;20.70;99.90;;;;;;5047788;28;20020;-76
2023/08/26 03:46:03;;;;;;;;;;;21.00;99.90;;;;;;5047819;28;19924;-77
2023/08/26 03:48:31;;;;;;;;;;;21.30;99.90;;;;;;5049692;28;20024;-77
2023/08/26 03:50:59;;;;;;;;;;;21.30;99.90;;;;;;5048049;28;19929;-77
2023/08/26 03:53:27;;;;;;;;;;;21.60;99.90;;;;;;5048543;28;19932;-76
2023/08/26 03:55:55;;;;;;;;;;;21.80;99.90;;;;;;5075319;22;20406;-65
2023/08/26 03:58:22;;;;;;;;;;;21.80;99.90;;;;;;5045097;28;19932;-67
2023/08/26 04:00:59;;;;;;;;;;;21.70;99.90;;;;;;5047522;28;19978;-66
2023/08/26 04:03:26;;;;;;;;;;;21.80;99.90;;;;;;5048861;28;20019;-66
2023/08/26 04:05:57;;;;;;;;;;;21.90;99.90;;;;;;5051491;28;20283;-68
2023/08/26 04:08:25;;;;;;;;;;;21.80;99.90;;;;;;5045574;28;19970;-69
2023/08/26 04:10:54;;;;;;;;;;;21.80;99.90;;;;;;5036100;28;19925;-68
2023/08/26 04:13:23;;;;;;;;;;;21.70;99.90;;;;;;5053276;28;19925;-68
2023/08/26 04:15:53;;;;;;;;;;;21.60;99.90;;;;;;5053678;28;19971;-67
2023/08/26 04:18:21;;;;;;;;;;;21.50;99.90;;;;;;5052544;28;20012;-69
2023/08/26 04:20:48;;;;;;;;;;;21.50;99.90;;;;;;5051552;28;19932;-69
2023/08/26 04:23:16;;;;;;;;;;;21.40;99.90;;;;;;5047958;28;19932;-69
2023/08/26 04:25:44;;;;;;;;;;;21.30;99.90;;;;;;5053413;28;20410;-69
2023/08/26 04:28:12;;;;;;;;;;;21.30;99.90;;;;;;5053884;28;19939;-69
2023/08/26 04:30:40;;;;;;;;;;;21.30;99.90;;;;;;5052636;28;19924;-69
2023/08/26 04:33:09;;;;;;;;;;;21.20;99.90;;;;;;5052711;28;19924;-69
2023/08/26 04:35:37;;;;;;;;;;;21.20;99.90;;;;;;5052803;28;19929;-68
2023/08/26 04:38:05;;;;;;;;;;;21.10;99.90;;;;;;5052792;28;19925;-70
2023/08/26 04:40:33;;;;;;;;;;;21.00;99.90;;;;;;5052866;28;19925;-69
2023/08/26 04:43:03;;;;;;;;;;;20.90;99.90;;;;;;5053624;28;19924;-69
2023/08/26 04:45:31;;;;;;;;;;;20.80;99.90;;;;;;5052545;28;20331;-69
2023/08/26 04:47:59;;;;;;;;;;;20.90;99.90;;;;;;5045263;28;20487;-69
2023/08/26 04:50:29;;;;;;;;;;;20.90;99.90;;;;;;5047304;28;20009;-69
2023/08/26 04:52:57;;;;;;;;;;;21.00;99.90;;;;;;5052631;28;19925;-70
2023/08/26 04:55:25;;;;;;;;;;;21.00;99.90;;;;;;5052708;28;20509;-70
2023/08/26 04:57:53;;;;;;;;;;;20.80;99.90;;;;;;5052062;28;19925;-69
2023/08/26 05:00:21;;;;;;;;;;;20.80;99.90;;;;;;5047525;28;19967;-69
2023/08/26 05:02:49;;;;;;;;;;;20.70;99.90;;;;;;5052010;28;19925;-69
2023/08/26 05:05:17;;;;;;;;;;;20.50;99.90;;;;;;5049817;28;19928;-68
2023/08/26 05:07:46;;;;;;;;;;;20.20;99.90;;;;;;5051036;28;19987;-68
2023/08/26 05:10:14;;;;;;;;;;;20.00;99.90;;;;;;5050524;28;19929;-69
2023/08/26 05:12:42;;;;;;;;;;;20.00;99.90;;;;;;5048102;28;20031;-67
2023/08/26 05:15:10;;;;;;;;;;;19.80;99.90;;;;;;5050390;28;19931;-67
2023/08/26 05:17:37;;;;;;;;;;;20.00;99.90;;;;;;5052037;28;20299;-66
2023/08/26 05:20:06;;;;;;;;;;;19.90;99.90;;;;;;5048587;28;20004;-67
2023/08/26 05:22:36;;;;;;;;;;;20.10;99.90;;;;;;5049830;28;21508;-67
2023/08/26 05:25:06;;;;;;;;;;;20.30;99.90;;;;;;5047978;28;19929;-68
2023/08/26 05:27:34;;;;;;;;;;;20.30;99.90;;;;;;5051698;28;19983;-69
2023/08/26 05:30:02;;;;;;;;;;;20.30;99.90;;;;;;5052613;28;19932;-68
2023/08/26 05:32:29;;;;;;;;;;;20.40;99.90;;;;;;5051664;28;19975;-68
2023/08/26 05:34:57;;;;;;;;;;;20.40;99.90;;;;;;5052595;28;20026;-69
2023/08/26 05:37:25;;;;;;;;;;;20.40;99.90;;;;;;5048229;28;19971;-68
2023/08/26 05:39:53;;;;;;;;;;;20.50;99.90;;;;;;5026345;28;19933;-68
2023/08/26 05:42:22;;;;;;;;;;;20.50;99.90;;;;;;5046425;28;19932;-68
2023/08/26 05:44:50;;;;;;;;;;;20.50;99.90;;;;;;5050956;28;19972;-68
2023/08/26 05:47:18;;;;;;;;;;;20.40;99.90;;;;;;5051849;28;19932;-68
2023/08/26 05:49:45;;;;;;;;;;;20.60;99.90;;;;;;5043622;28;19931;-68
2023/08/26 05:52:13;;;;;;;;;;;20.60;99.90;;;;;;5052384;28;19925;-68
2023/08/26 05:54:42;;;;;;;;;;;20.60;99.90;;;;;;5049892;28;19943;-69
2023/08/26 05:57:11;;;;;;;;;;;20.60;99.90;;;;;;5045682;28;20307;-69
2023/08/26 05:59:40;;;;;;;;;;;20.80;99.90;;;;;;5043950;28;20015;-69
2023/08/26 06:02:08;;;;;;;;;;;20.60;99.90;;;;;;5051494;28;19925;-68
2023/08/26 06:04:36;;;;;;;;;;;20.50;99.90;;;;;;5051553;28;19929;-68
2023/08/26 06:07:04;;;;;;;;;;;20.40;99.90;;;;;;5051968;28;19929;-69
2023/08/26 06:09:31;;;;;;;;;;;20.50;99.90;;;;;;5052200;28;19964;-70
2023/08/26 06:11:59;;;;;;;;;;;20.30;99.90;;;;;;5030190;28;19929;-70
2023/08/26 06:14:27;;;;;;;;;;;20.30;99.90;;;;;;5046477;28;19932;-70
2023/08/26 06:16:56;;;;;;;;;;;20.40;99.90;;;;;;5037335;28;20194;-69
2023/08/26 06:19:24;;;;;;;;;;;20.40;99.90;;;;;;5041118;28;19936;-67
2023/08/26 06:21:52;;;;;;;;;;;20.30;99.90;;;;;;5037986;28;19940;-67
2023/08/26 06:24:20;;;;;;;;;;;20.30;99.90;;;;;;5039600;28;19929;-67
2023/08/26 06:26:47;;;;;;;;;;;20.30;99.90;;;;;;5039025;28;19928;-67
2023/08/26 06:29:16;;;;;;;;;;;20.60;99.90;;;;;;5036032;28;19933;-67
2023/08/26 06:31:43;;;;;;;;;;;20.70;99.90;;;;;;5028022;28;20206;-67
2023/08/26 06:34:13;;;;;;;;;;;20.70;99.90;;;;;;5019904;28;19932;-67
2023/08/26 06:36:44;;;;;;;;;;;20.90;99.90;;;;;;5039388;28;19933;-66
2023/08/26 06:39:12;;;;;;;;;;;20.80;99.90;;;;;;5037254;28;20411;-67
2023/08/26 06:41:40;;;;;;;;;;;20.80;99.90;;;;;;5037687;28;19933;-66
2023/08/26 06:44:08;;;;;;;;;;;20.90;99.90;;;;;;5039319;28;20541;-66
2023/08/26 06:46:36;;;;;;;;;;;20.80;99.90;;;;;;5039918;28;20406;-67
2023/08/26 06:49:04;;;;;;;;;;;20.70;99.90;;;;;;5036766;28;20383;-68
2023/08/26 06:51:34;;;;;;;;;;;20.80;99.90;;;;;;5039237;28;19939;-67
2023/08/26 06:54:01;;;;;;;;;;;20.70;99.90;;;;;;5039337;28;19936;-67
2023/08/26 06:56:29;;;;;;;;;;;20.60;99.90;;;;;;5038250;28;19999;-67
2023/08/26 06:58:58;;;;;;;;;;;20.80;99.90;;;;;;5035609;28;19955;-67
2023/08/26 07:01:26;;;;;;;;;;;21.00;99.90;;;;;;5037915;28;19932;-67
2023/08/26 07:03:54;;;;;;;;;;;20.80;99.90;;;;;;5038820;28;19976;-67
2023/08/26 07:06:24;;;;;;;;;;;20.50;99.90;;;;;;5038563;28;20078;-67
2023/08/26 07:08:53;;;;;;;;;;;20.50;99.90;;;;;;5037458;28;19940;-67
2023/08/26 07:11:24;;;;;;;;;;;20.80;99.90;;;;;;5038534;28;20094;-67
2023/08/26 07:13:52;;;;;;;;;;;20.80;99.90;;;;;;5038681;28;19932;-67
2023/08/26 07:16:20;;;;;;;;;;;20.60;99.90;;;;;;5037669;28;20374;-66
2023/08/26 07:18:48;;;;;;;;;;;20.40;99.90;;;;;;5037206;28;19936;-66
2023/08/26 07:21:16;;;;;;;;;;;20.50;99.90;;;;;;5039577;28;20354;-66
2023/08/26 07:23:43;;;;;;;;;;;20.50;99.90;;;;;;5038620;28;20407;-67
2023/08/26 07:26:13;;;;;;;;;;;20.60;99.90;;;;;;5038639;28;19932;-68
2023/08/26 07:28:40;;;;;;;;;;;20.80;99.90;;;;;;5037165;28;20295;-67
2023/08/26 07:31:09;;;;;;;;;;;20.80;99.90;;;;;;5042187;28;19986;-66
2023/08/26 07:33:37;;;;;;;;;;;21.00;99.90;;;;;;5042915;28;19933;-69
2023/08/26 07:36:05;;;;;;;;;;;21.20;99.90;;;;;;5042717;28;19936;-68
2023/08/26 07:38:33;;;;;;;;;;;21.20;99.90;;;;;;5038740;28;19932;-68
2023/08/26 07:41:01;;;;;;;;;;;21.20;99.90;;;;;;5042482;28;20281;-68
2023/08/26 07:43:32;;;;;;;;;;;21.30;99.90;;;;;;5042459;28;19936;-68
2023/08/26 07:46:00;;;;;;;;;;;21.30;99.90;;;;;;5043311;28;19944;-68
2023/08/26 07:48:31;;;;;;;;;;;21.30;99.90;;;;;;5040609;28;19947;-68
2023/08/26 07:51:02;;;;;;;;;;;21.10;99.90;;;;;;5025053;28;19936;-69
2023/08/26 07:53:29;;;;;;;;;;;21.20;99.90;;;;;;5041843;28;19939;-68
2023/08/26 07:55:57;;;;;;;;;;;21.20;99.90;;;;;;5041599;28;19932;-68
2023/08/26 07:58:25;;;;;;;;;;;21.20;99.90;;;;;;5039641;28;19933;-69
2023/08/26 08:00:54;;;;;;;;;;;21.00;99.90;;;;;;5040293;28;19989;-68
2023/08/26 08:03:22;;;;;;;;;;;20.70;99.90;;;;;;5041243;28;19982;-68
2023/08/26 08:05:50;;;;;;;;;;;20.70;99.90;;;;;;5041083;28;19933;-68
2023/08/26 08:08:18;;;;;;;;;;;20.90;99.90;;;;;;5039951;28;19967;-68
2023/08/26 08:10:45;;;;;;;;;;;21.20;99.90;;;;;;5041016;28;20002;-69
2023/08/26 08:13:13;;;;;;;;;;;21.40;99.90;;;;;;5041873;28;21023;-68
2023/08/26 08:15:41;;;;;;;;;;;21.40;99.90;;;;;;5041850;28;20552;-69
2023/08/26 08:18:10;;;;;;;;;;;21.40;99.90;;;;;;5040290;28;20532;-69
2023/08/26 08:20:38;;;;;;;;;;;21.60;99.90;;;;;;5040754;28;19939;-68
2023/08/26 08:23:06;;;;;;;;;;;21.50;99.90;;;;;;5041351;28;19940;-67
2023/08/26 08:25:34;;;;;;;;;;;21.40;99.90;;;;;;5041292;28;19990;-69
2023/08/26 08:28:02;;;;;;;;;;;21.30;99.90;;;;;;5038934;28;20407;-68
2023/08/26 08:30:30;;;;;;;;;;;21.40;99.90;;;;;;5041060;28;19940;-69
2023/08/26 08:32:57;;;;;;;;;;;21.50;99.90;;;;;;5040735;28;19956;-68
2023/08/26 08:35:27;;;;;;;;;;;21.60;99.90;;;;;;5039701;28;19950;-68
2023/08/26 08:37:55;;;;;;;;;;;21.80;99.90;;;;;;5039349;28;19939;-67
2023/08/26 08:40:23;;;;;;;;;;;21.90;99.90;;;;;;5039429;28;19932;-69
2023/08/26 08:42:51;;;;;;;;;;;21.90;99.90;;;;;;5040509;28;20311;-69
2023/08/26 08:45:19;;;;;;;;;;;22.00;99.90;;;;;;5040907;28;19940;-69
2023/08/26 08:47:47;;;;;;;;;;;22.20;99.90;;;;;;5038527;28;19942;-68
2023/08/26 08:50:16;;;;;;;;;;;22.30;99.90;;;;;;5040654;28;20022;-69
2023/08/26 08:52:45;;;;;;;;;;;22.40;99.90;;;;;;5040768;28;19932;-69
2023/08/26 08:55:13;;;;;;;;;;;22.30;99.90;;;;;;5040058;28;19933;-69
2023/08/26 08:57:41;;;;;;;;;;;22.40;99.90;;;;;;5039300;28;19943;-69
2023/08/26 09:00:09;;;;;;;;;;;22.60;99.90;;;;;;5041230;28;19940;-68
2023/08/26 09:02:40;;;;;;;;;;;22.70;99.90;;;;;;5042385;28;19933;-69
2023/08/26 09:05:09;;;;;;;;;;;22.90;99.90;;;;;;5041840;28;19960;-69
2023/08/26 09:07:37;;;;;;;;;;;22.80;99.90;;;;;;5039589;28;19956;-68
2023/08/26 09:10:08;;;;;;;;;;;23.00;99.90;;;;;;5041627;28;20276;-68
2023/08/26 09:12:36;;;;;;;;;;;22.80;99.90;;;;;;5041234;28;19939;-68
2023/08/26 09:15:04;;;;;;;;;;;22.70;99.90;;;;;;5042217;28;19940;-68
2023/08/26 09:17:32;;;;;;;;;;;22.80;99.90;;;;;;5039191;28;19933;-69
2023/08/26 09:20:03;;;;;;;;;;;22.60;99.90;;;;;;5041784;28;19985;-69
2023/08/26 09:22:31;;;;;;;;;;;22.60;99.90;;;;;;5041641;28;20051;-68
2023/08/26 09:25:00;;;;;;;;;;;22.60;99.90;;;;;;5041789;28;19956;-68
2023/08/26 09:27:29;;;;;;;;;;;22.50;99.90;;;;;;5039759;28;20715;-69
2023/08/26 09:29:57;;;;;;;;;;;22.70;99.90;;;;;;5041110;28;19936;-68
2023/08/26 09:32:31;;;;;;;;;;;22.90;99.90;;;;;;5041186;28;19936;-69
2023/08/26 09:35:10;;;;;;;;;;;22.80;99.90;;;;;;5041500;28;20040;-69
2023/08/26 09:37:37;;;;;;;;;;;22.90;99.90;;;;;;5040224;28;19928;-70
2023/08/26 09:40:06;;;;;;;;;;;23.10;99.90;;;;;;5041269;28;19933;-69
2023/08/26 09:42:36;;;;;;;;;;;23.30;99.90;;;;;;5041559;28;19941;-69
2023/08/26 09:45:06;;;;;;;;;;;23.30;99.90;;;;;;5041411;28;19933;-69
2023/08/26 09:47:37;;;;;;;;;;;23.30;99.90;;;;;;5039649;28;19929;-69
2023/08/26 09:50:05;;;;;;;;;;;23.20;99.90;;;;;;5040802;28;20407;-68
2023/08/26 09:52:41;;;;;;;;;;;23.20;99.90;;;;;;5041411;28;20303;-69
2023/08/26 09:55:09;;;;;;;;;;;23.10;99.90;;;;;;5041462;28;19932;-70
2023/08/26 09:57:38;;;;;;;;;;;23.10;99.90;;;;;;5038877;28;19940;-69
2023/08/26 10:00:10;;;;;;;;;;;23.20;99.90;;;;;;5039873;28;19933;-70
2023/08/26 10:02:38;;;;;;;;;;;23.00;99.90;;;;;;5041011;28;20436;-69
2023/08/26 10:05:10;;;;;;;;;;;23.30;99.90;;;;;;5041171;28;19943;-70
2023/08/26 10:07:39;;;;;;;;;;;23.60;99.90;;;;;;5039490;28;19933;-70
2023/08/26 10:10:09;;;;;;;;;;;23.90;99.90;;;;;;5040363;28;19933;-70
2023/08/26 10:12:40;;;;;;;;;;;24.30;99.90;;;;;;5040459;28;19929;-70
2023/08/26 10:15:10;;;;;;;;;;;24.60;99.90;;;;;;5041382;28;19998;-69
2023/08/26 10:17:40;;;;;;;;;;;24.40;99.90;;;;;;5039765;28;19933;-70
2023/08/26 10:20:09;;;;;;;;;;;24.50;99.90;;;;;;5039681;28;20464;-69
2023/08/26 10:22:37;;;;;;;;;;;24.50;99.90;;;;;;5040738;28;19937;-68
2023/08/26 10:25:06;;;;;;;;;;;24.30;99.90;;;;;;5040915;28;19939;-69
2023/08/26 10:27:35;;;;;;;;;;;24.10;99.90;;;;;;5039299;28;19932;-70
2023/08/26 10:30:06;;;;;;;;;;;24.20;99.90;;;;;;5039977;28;19933;-73
2023/08/26 10:32:42;;;;;;;;;;;24.10;99.90;;;;;;5041224;28;20616;-68
2023/08/26 10:35:11;;;;;;;;;;;24.10;99.90;;;;;;5040900;28;19979;-69
2023/08/26 10:37:40;;;;;;;;;;;24.10;99.90;;;;;;5038999;28;19932;-69
2023/08/26 10:40:09;;;;;;;;;;;24.50;99.90;;;;;;5039680;28;19936;-69
2023/08/26 10:42:37;;;;;;;;;;;24.70;99.90;;;;;;5040451;28;19935;-70
2023/08/26 10:45:14;;;;;;;;;;;25.00;99.90;;;;;;5040568;28;19933;-69
2023/08/26 10:47:44;;;;;;;;;;;25.10;99.90;;;;;;5038624;28;19933;-68
2023/08/26 10:50:17;;;;;;;;;;;24.90;99.90;;;;;;5040239;28;20006;-70
2023/08/26 10:52:46;;;;;;;;;;;24.80;99.90;;;;;;5041010;28;19939;-70
2023/08/26 10:55:19;;;;;;;;;;;24.70;99.90;;;;;;5040662;28;19933;-70
2023/08/26 10:58:05;;;;;;;;;;;24.90;99.90;;;;;;5038840;28;19924;-69
2023/08/26 11:00:34;;;;;;;;;;;25.00;99.90;;;;;;5027549;28;19941;-70
2023/08/26 11:03:03;;;;;;;;;;;24.80;99.90;;;;;;5040557;28;19928;-67
2023/08/26 11:05:31;;;;;;;;;;;24.90;99.90;;;;;;5044557;28;20738;-67
2023/08/26 11:08:02;;;;;;;;;;;24.80;99.90;;;;;;5042840;28;19933;-69
2023/08/26 11:10:31;;;;;;;;;;;24.60;99.90;;;;;;5044288;28;19944;-69
2023/08/26 11:12:59;;;;;;;;;;;24.50;99.90;;;;;;5044934;28;19951;-69
2023/08/26 11:15:32;;;;;;;;;;;24.10;99.90;;;;;;5044643;28;20030;-69
2023/08/26 11:18:01;;;;;;;;;;;23.80;99.90;;;;;;5042613;28;19929;-70
2023/08/26 11:20:29;;;;;;;;;;;24.00;99.90;;;;;;5043364;28;19932;-69
2023/08/26 11:22:57;;;;;;;;;;;23.90;99.90;;;;;;5044224;28;19929;-70
2023/08/26 11:25:25;;;;;;;;;;;23.70;99.90;;;;;;5044336;28;20366;-70
2023/08/26 11:27:52;;;;;;;;;;;23.70;99.90;;;;;;5043065;28;19939;-71
2023/08/26 11:30:20;;;;;;;;;;;23.50;99.90;;;;;;5044718;28;20406;-69
2023/08/26 11:32:49;;;;;;;;;;;23.60;99.90;;;;;;5044931;28;19925;-72
2023/08/26 11:35:19;;;;;;;;;;;23.70;99.90;;;;;;5043966;28;20011;-70
2023/08/26 11:37:47;;;;;;;;;;;23.80;99.90;;;;;;5043438;28;19954;-69
2023/08/26 11:40:16;;;;;;;;;;;23.80;99.90;;;;;;5044431;28;19933;-69
2023/08/26 11:42:44;;;;;;;;;;;23.90;99.90;;;;;;5044816;28;19935;-70
2023/08/26 11:45:12;;;;;;;;;;;24.10;99.90;;;;;;5043299;28;19936;-69
2023/08/26 11:47:40;;;;;;;;;;;24.10;99.90;;;;;;5041724;28;19932;-70
2023/08/26 11:50:10;;;;;;;;;;;24.20;99.90;;;;;;5041944;28;19932;-70
2023/08/26 11:52:41;;;;;;;;;;;23.90;99.90;;;;;;5043690;28;20012;-70
2023/08/26 11:55:09;;;;;;;;;;;23.90;99.90;;;;;;5045327;28;19939;-70
2023/08/26 11:57:39;;;;;;;;;;;24.30;99.90;;;;;;5044685;28;20445;-71
2023/08/26 12:00:09;;;;;;;;;;;24.50;99.90;;;;;;5046284;28;19929;-68
2023/08/26 12:02:36;;;;;;;;;;;24.80;99.90;;;;;;5047178;28;19929;-69
2023/08/26 12:05:05;;;;;;;;;;;25.20;99.90;;;;;;5045276;28;20146;-70
2023/08/26 12:07:32;;;;;;;;;;;25.30;99.90;;;;;;5044175;28;20019;-70
2023/08/26 12:10:10;;;;;;;;;;;25.20;99.90;;;;;;5043827;28;19933;-68
2023/08/26 12:12:38;;;;;;;;;;;24.90;99.90;;;;;;5045748;28;19931;-69
2023/08/26 12:15:06;;;;;;;;;;;24.70;99.90;;;;;;5043373;28;19933;-66
2023/08/26 12:17:43;;;;;;;7.32;4.55;;;24.60;99.90;;;;;;5040019;28;20064;-69
2023/08/26 12:20:24;;;;;;;1.08;0.73;;;24.90;99.90;;;;;;5041417;28;20261;-67
2023/08/26 12:22:53;;;;;;;0.90;0.80;;;25.30;99.90;;;;;;5042140;28;20212;-68
2023/08/26 12:25:28;;;;;;;0.75;0.73;;;25.80;99.90;;;;;;5041973;28;20238;-67
2023/08/26 12:28:12;;;;;;;0.80;0.55;;;26.10;99.90;;;;;;5040180;28;20302;-67
2023/08/26 12:30:42;;;;;;;1.10;0.75;;;26.10;99.30;;;;;;5041292;28;20208;-69
2023/08/26 12:33:10;;;;;;;0.68;0.57;;;26.30;99.10;;;;;;5041886;28;20212;-68
2023/08/26 12:35:52;;;;;;;0.70;0.60;;;26.50;99.90;;;;;;5041813;28;20220;-69
2023/08/26 12:38:20;;;;;;;0.60;0.50;;;26.50;98.70;;;;;;5039725;28;20192;-67
2023/08/26 12:40:50;;;;;;;1.05;0.70;;;26.80;98.40;;;;;;5041286;28;20211;-68
2023/08/26 12:43:19;;;;;;;0.90;0.88;;;27.30;98.80;;;;;;5042357;28;20207;-67
2023/08/26 12:45:48;;;;;;;0.60;0.50;;;27.90;97.00;;;;;;5040178;28;20239;-67
2023/08/26 12:48:17;;;;;;;0.98;0.50;;;28.10;97.10;;;;;;5040451;28;20211;-69
2023/08/26 12:51:08;;;;;;;1.67;0.73;;;28.10;96.50;;;;;;5041342;28;20651;-67
2023/08/26 12:53:37;;;;;;;2.05;0.60;;;27.90;95.60;;;;;;5041762;28;20203;-68
2023/08/26 12:56:07;;;;;;;0.60;0.50;;;27.40;95.90;;;;;;5041472;28;20752;-70
2023/08/26 12:58:35;;;;;;;1.23;0.60;;;27.60;96.60;;;;;;5040247;28;20200;-69
2023/08/26 13:01:03;;;;;;;0.80;0.70;;;27.50;95.80;;;;;;5040697;28;20203;-68
2023/08/26 13:03:31;;;;;;;0.80;0.52;;;27.50;96.30;;;;;;5041691;28;20212;-68
2023/08/26 13:05:59;;;;;;;0.70;0.70;;;27.70;96.00;;;;;;5041043;28;20227;-67
2023/08/26 13:08:27;;;;;;;0.75;0.60;;;28.00;96.40;;;;;;5038646;28;20208;-68
2023/08/26 13:10:56;;;;;;;0.70;0.60;;;28.10;96.20;;;;;;5040078;28;20212;-69
2023/08/26 13:13:25;;;;;;;1.33;0.70;;;27.60;94.70;;;;;;5040311;28;20215;-68
2023/08/26 13:15:53;;;;;;;5.03;3.65;;;27.20;96.00;;;;;;5040587;28;20236;-66
2023/08/26 13:18:21;;;;;;;1.50;1.40;;;27.20;95.80;;;;;;5039092;28;20667;-67
2023/08/26 13:20:49;;;;;;;0.93;0.50;;;27.30;95.30;;;;;;5040351;28;20196;-69
2023/08/26 13:23:17;;;;;;;2.63;0.75;;;27.10;95.40;;;;;;5041381;28;20579;-68
2023/08/26 13:25:45;;;;;;;1.02;0.50;;;26.70;95.70;;;;;;5040562;28;20232;-67
2023/08/26 13:28:14;;;;;;;0.90;0.60;;;26.70;96.10;;;;;;5037626;28;20212;-67
2023/08/26 13:30:44;;;;;;;1.73;0.70;;;27.00;95.70;;;;;;5040004;28;20297;-67
2023/08/26 13:33:12;;;;;;;1.10;0.50;;;26.70;95.70;;;;;;5040926;28;20265;-67
2023/08/26 13:35:40;;;;;;;1.00;0.88;;;26.50;96.60;;;;;;5040854;28;20232;-67
2023/08/26 13:38:08;;;;;;;0.95;0.60;;;26.60;97.30;;;;;;5039132;28;20228;-66
2023/08/26 13:40:36;;;;;;;1.95;0.60;;;27.00;96.40;;;;;;5039906;28;20273;-67
2023/08/26 13:43:04;;;;;;;1.50;0.77;;;27.20;95.10;;;;;;5040575;28;21194;-67
2023/08/26 13:45:32;;;;;;;1.00;0.65;;;27.30;95.30;;;;;;5040415;28;20223;-67
2023/08/26 13:48:02;;;;;;;0.90;0.68;;;27.30;95.10;;;;;;5039064;28;20211;-67
2023/08/26 13:50:30;;;;;;;0.70;0.65;;;27.40;95.20;;;;;;5039292;28;20290;-66
2023/08/26 13:52:58;;;;;;;0.60;0.50;;;27.30;95.60;;;;;;5039993;28;20230;-67
2023/08/26 13:55:26;;;;;;;0.85;0.60;;;27.20;95.30;;;;;;5039432;28;20216;-67
2023/08/26 13:57:54;;;;;;;0.70;0.50;;;26.90;95.20;;;;;;5038490;28;20227;-69
2023/08/26 14:00:23;;;;;;;1.13;0.70;;;27.00;94.70;;;;;;5039456;28;20208;-68
2023/08/26 14:02:51;;;;;;;0.70;0.60;;;27.30;94.50;;;;;;5039130;28;20204;-66
2023/08/26 14:05:23;;;;;;;0.95;0.60;;;27.60;94.50;;;;;;5039153;28;20246;-68
2023/08/26 14:07:51;;;;;;;2.15;1.05;;;28.10;94.40;;;;;;5037507;28;20290;-67
2023/08/26 14:10:19;;;;;;;0.68;0.55;;;28.10;93.60;;;;;;5039257;28;20609;-67
2023/08/26 14:12:47;;;;;;;0.60;0.52;;;28.20;93.90;;;;;;5039741;28;20597;-67